createdAt,value
2023-02-24T00:01:05.032Z,0.50
2023-02-24T00:21:04.750Z,2.00
2023-02-24T00:41:04.493Z,2.80
2023-02-24T01:01:04.276Z,0.70
2023-02-24T01:21:03.975Z,0.50
2023-02-24T01:41:03.740Z,1.40
2023-02-24T02:01:03.469Z,1.50
2023-02-24T02:21:03.220Z,1.00
2023-02-24T02:41:02.969Z,2.70
2023-02-24T03:01:02.866Z,2.00
2023-02-24T03:21:02.467Z,1.10
2023-02-24T03:41:02.151Z,0.60
2023-02-24T04:01:01.887Z,1.40
2023-02-24T04:21:01.630Z,4.70
2023-02-24T04:41:01.379Z,2.00
2023-02-24T05:01:01.130Z,1.10
2023-02-24T05:21:01.888Z,1.80
2023-02-24T05:41:00.596Z,1.60
2023-02-24T06:01:00.329Z,1.30
2023-02-24T06:21:00.091Z,1.60
2023-02-24T06:40:59.819Z,1.40
2023-02-24T07:00:59.585Z,1.90
2023-02-24T07:20:59.997Z,0.70
2023-02-24T07:40:59.035Z,1.80
2023-02-24T08:00:58.782Z,1.90
2023-02-24T08:20:58.514Z,1.90
2023-02-24T08:40:58.284Z,1.00
2023-02-24T09:00:58.098Z,1.90
2023-02-24T09:20:57.749Z,3.10
2023-02-24T09:40:58.574Z,2.30
2023-02-24T10:00:57.279Z,4.30
2023-02-24T10:20:56.995Z,1.90
2023-02-24T10:40:56.760Z,3.30
2023-02-24T11:00:56.429Z,3.60
2023-02-24T11:20:56.155Z,3.90
2023-02-24T11:40:55.877Z,6.60
2023-02-24T12:00:55.608Z,4.20
2023-02-24T12:20:55.353Z,7.30
2023-02-24T12:40:55.103Z,5.00
2023-02-24T13:00:54.868Z,7.30
2023-02-24T13:20:54.544Z,5.80
2023-02-24T13:40:54.250Z,2.50
2023-02-24T14:00:54.053Z,2.70
2023-02-24T14:20:53.706Z,1.00
2023-02-24T14:40:53.434Z,0.50
2023-02-24T15:00:53.208Z,0.40
2023-02-24T15:20:52.891Z,0.50
2023-02-24T15:40:52.614Z,0.70
2023-02-24T16:00:52.462Z,1.40
2023-02-24T16:20:52.150Z,2.10
2023-02-24T16:40:51.824Z,2.70
2023-02-24T17:00:51.576Z,4.40
2023-02-24T17:20:51.281Z,2.10
2023-02-24T17:40:51.012Z,4.10
2023-02-24T18:00:50.735Z,7.20
2023-02-24T18:20:50.503Z,3.10
2023-02-24T18:40:50.209Z,5.50
2023-02-24T19:00:49.957Z,2.50
2023-02-24T19:20:49.671Z,4.60
2023-02-24T19:40:49.375Z,5.10
2023-02-24T20:00:49.163Z,4.90
2023-02-24T20:20:48.852Z,8.00
2023-02-24T20:40:48.569Z,5.10
2023-02-24T21:00:49.301Z,3.70
2023-02-24T21:20:48.081Z,7.10
2023-02-24T21:40:47.756Z,11.00
2023-02-24T22:00:47.493Z,4.10
2023-02-24T22:20:47.224Z,4.10
2023-02-24T22:40:46.945Z,2.30
2023-02-24T23:00:46.737Z,3.40
2023-02-24T23:20:46.451Z,2.40
2023-02-24T23:40:50.574Z,2.00
